CST,Max TemperatureF,Mean TemperatureF,Min TemperatureF,Max Dew PointF,MeanDew PointF,Min DewpointF,Max Humidity, Mean Humidity, Min Humidity, Max Sea Level PressureIn, Mean Sea Level PressureIn, Min Sea Level PressureIn, Max VisibilityMiles, Mean VisibilityMiles, Min VisibilityMiles, Max Wind SpeedMPH, Mean Wind SpeedMPH, Max Gust SpeedMPH,PrecipitationIn, CloudCover, Events, WindDirDegrees
2013-11-1,53,45,37,39,37,32,93,81,54,29.90,29.67,29.47,10,9,7,22,11,30,0.00,6,,295
2013-11-2,53,42,30,37,34,30,100,76,44,30.09,30.03,29.90,10,10,10,17,11,24,0.00,2,,286
2013-11-3,55,44,33,36,31,27,87,62,33,30.05,29.88,29.76,10,10,10,34,14,47,0.01,0,,154
2013-11-4,51,40,30,43,36,28,93,76,62,30.16,29.91,29.76,10,10,7,22,14,32,0.09,2,Rain,224
2013-11-5,37,30,24,32,28,23,100,88,70,30.21,30.12,30.00,10,7,1,23,5,29,0.00,4,Snow,7
2013-11-6,35,28,21,28,25,19,100,83,56,30.19,30.12,30.04,10,10,4,24,13,26,0.06,3,Snow,270
2013-11-7,37,30,23,28,26,21,100,84,56,30.28,30.22,30.17,10,9,0,16,10,20,0.00,2,Fog-Snow,249
2013-11-8,48,36,24,39,30,21,86,74,61,30.19,29.85,29.62,10,10,10,25,10,34,0.00,2,,182
2013-11-9,46,38,28,39,33,25,87,75,53,30.29,30.01,29.72,10,10,10,29,17,37,0.00,3,,280
2013-11-10,37,28,19,30,26,19,100,83,70,30.35,30.24,30.09,10,10,10,14,7,,0.00,4,,218
2013-11-11,37,22,8,32,15,5,93,80,63,30.73,30.45,30.11,10,9,1,25,17,31,0.00,4,Snow,331
2013-11-12,26,14,1,16,8,-2,92,73,54,30.77,30.66,30.42,10,10,10,20,8,22,0.00,0,,232
2013-11-13,53,37,21,34,25,12,81,63,47,30.41,30.07,29.89,10,10,10,24,16,31,0.00,0,,207
2013-11-14,57,44,30,39,34,28,100,78,48,29.89,29.84,29.79,10,10,7,16,8,23,0.00,1,Rain,237
2013-11-15,57,42,28,37,34,27,100,76,47,29.84,29.74,29.56,10,10,7,17,5,25,0.00,0,,175
2013-11-16,53,46,39,50,41,32,100,87,66,29.55,29.36,29.21,10,7,1,17,11,22,0.00,3,Rain,172
2013-11-17,48,40,33,37,35,28,93,82,57,29.92,29.56,29.33,10,10,5,30,12,38,0.00,4,,290
2013-11-18,41,32,24,28,25,21,87,75,56,30.22,30.12,29.93,10,10,10,24,12,31,0.00,2,,309
2013-11-19,53,38,24,34,28,21,93,62,38,30.19,29.96,29.81,10,10,10,29,15,38,0.00,1,,152
2013-11-20,50,40,30,34,31,28,100,66,50,30.01,29.85,29.79,10,10,7,21,15,30,0.00,1,,153
2013-11-21,30,22,15,28,18,9,100,86,73,30.53,30.30,30.01,10,8,2,29,19,34,0.00,8,Snow,325
2013-11-22,33,18,3,12,6,0,85,63,28,30.65,30.55,30.47,10,10,10,24,14,30,0.00,1,,287
2013-11-23,15,8,1,3,1,-2,92,75,49,30.83,30.75,30.66,10,10,10,21,12,25,0.00,0,,317
2013-11-24,33,20,6,18,10,0,79,62,44,30.64,30.28,29.97,10,10,10,30,14,38,0.00,0,,193
2013-11-25,42,34,26,27,23,18,93,66,49,30.12,30.03,29.94,10,10,10,24,17,31,0.00,4,,280
2013-11-26,30,19,8,21,10,5,92,65,43,30.37,30.27,30.12,10,10,10,31,19,39,0.00,3,,323
2013-11-27,26,14,3,10,7,0,92,72,46,30.37,30.17,29.96,10,10,10,18,7,31,0.00,0,,167
2013-11-28,26,16,5,16,9,1,86,71,50,30.45,30.28,29.99,10,10,10,25,10,32,0.00,1,,314
2013-11-29,33,18,3,25,14,0,86,72,52,30.46,30.27,30.06,10,10,10,21,7,26,0.00,0,,166
2013-11-30,42,32,21,28,24,19,93,75,53,30.16,30.07,30.00,10,10,10,16,10,17,0.00,0,,288